Time;durP1;ratioP1;P1;durP2;ratioP2;P2;SDS_P1;SDS_P2;PMS_P1;PMS_P2;Temp;Humidity;BMP_temperature;BMP_pressure;BME280_temperature;BME280_humidity;BME280_pressure;Samples;Min_cycle;Max_cycle;Signal;HPM_P1;HPM_P2
2024/03/19 00:01:56;;;;;;;26.70;3.63;;;5.80;99.90;;;;;;5063707;28;20051;-57
2024/03/19 00:04:22;;;;;;;37.70;4.13;;;5.80;99.90;;;;;;5064602;28;20056;-57
2024/03/19 00:06:48;;;;;;;37.53;3.85;;;5.80;99.90;;;;;;5063982;28;20044;-58
2024/03/19 00:09:13;;;;;;;44.50;4.10;;;5.80;99.90;;;;;;5046424;28;20066;-61
2024/03/19 00:11:39;;;;;;;37.60;4.72;;;5.80;99.90;;;;;;5047354;28;20122;-64
2024/03/19 00:14:05;;;;;;;43.67;5.00;;;5.90;99.90;;;;;;5065096;28;20045;-55
2024/03/19 00:16:30;;;;;;;33.65;4.55;;;6.00;99.90;;;;;;5083977;28;20109;-62
2024/03/19 00:18:56;;;;;;;69.07;5.15;;;5.90;99.90;;;;;;5033007;28;20064;-56
2024/03/19 00:21:22;;;;;;;65.28;5.90;;;6.10;99.90;;;;;;5059320;28;20713;-64
2024/03/19 00:23:47;;;;;;;93.97;6.13;;;6.10;99.90;;;;;;5064182;28;20048;-63
2024/03/19 00:26:13;;;;;;;64.90;5.43;;;6.10;99.90;;;;;;5063865;28;20082;-59
2024/03/19 00:28:39;;;;;;;59.17;5.70;;;6.10;99.90;;;;;;5030248;28;20105;-66
2024/03/19 00:31:06;;;;;;;52.67;6.75;;;6.20;99.90;;;;;;5064280;28;20514;-56
2024/03/19 00:33:32;;;;;;;49.25;6.50;;;6.20;99.90;;;;;;5064058;28;20052;-65
2024/03/19 00:35:58;;;;;;;75.13;6.43;;;6.20;99.90;;;;;;5064435;28;20036;-54
2024/03/19 00:38:25;;;;;;;47.65;6.15;;;6.30;99.90;;;;;;5029523;28;20087;-55
2024/03/19 00:40:51;;;;;;;62.75;5.90;;;6.20;99.90;;;;;;5064324;28;20428;-64
2024/03/19 00:43:17;;;;;;;49.25;6.43;;;6.30;99.90;;;;;;5063241;28;20044;-67
2024/03/19 00:45:43;;;;;;;54.72;6.45;;;6.30;99.90;;;;;;5065560;28;20067;-60
2024/03/19 00:48:08;;;;;;;48.40;6.30;;;6.40;99.90;;;;;;5044594;28;20414;-60
2024/03/19 00:50:34;;;;;;;35.42;5.70;;;6.40;99.90;;;;;;5063710;28;20398;-66
2024/03/19 00:53:00;;;;;;;60.55;6.60;;;6.30;99.90;;;;;;5062783;28;20095;-60
2024/03/19 00:55:25;;;;;;;65.82;6.57;;;6.30;99.90;;;;;;5063619;28;20797;-63
2024/03/19 00:57:51;;;;;;;53.63;6.70;;;6.40;99.90;;;;;;5045767;28;20048;-59
2024/03/19 01:00:18;;;;;;;74.00;7.63;;;6.30;99.90;;;;;;5025322;28;20497;-59
2024/03/19 01:02:44;;;;;;;62.47;6.68;;;6.30;99.90;;;;;;5062279;28;20054;-57
2024/03/19 01:05:11;;;;;;;62.03;6.32;;;6.40;99.90;;;;;;5063064;28;20062;-58
2024/03/19 01:07:44;;;;;;;87.70;7.45;;;6.40;99.90;;;;;;5042830;28;20571;-62
2024/03/19 01:10:11;;;;;;;61.03;6.88;;;6.50;99.90;;;;;;5058420;28;20441;-58
2024/03/19 01:12:38;;;;;;;41.60;6.95;;;6.40;99.90;;;;;;5062718;28;20388;-53
2024/03/19 01:15:08;;;;;;;48.45;7.55;;;6.60;99.90;;;;;;5063218;28;20439;-61
2024/03/19 01:17:41;;;;;;;41.45;6.88;;;6.50;99.90;;;;;;5039373;28;20830;-60
2024/03/19 01:20:10;;;;;;;53.70;6.70;;;6.50;99.90;;;;;;5026684;28;20094;-60
2024/03/19 01:22:37;;;;;;;48.17;6.40;;;6.50;99.90;;;;;;5044441;28;20041;-67
2024/03/19 01:25:06;;;;;;;31.42;7.35;;;6.60;99.90;;;;;;5043344;28;20057;-61
2024/03/19 01:27:32;;;;;;;67.43;8.05;;;6.60;99.90;;;;;;5059680;28;20522;-62
2024/03/19 01:29:58;;;;;;;41.88;7.40;;;6.70;99.90;;;;;;5063170;28;20052;-64
2024/03/19 01:32:24;;;;;;;104.78;7.95;;;6.70;99.90;;;;;;5045142;28;20095;-58
2024/03/19 01:34:49;;;;;;;46.53;6.95;;;6.60;99.90;;;;;;5043309;28;20178;-66
2024/03/19 01:37:15;;;;;;;60.45;7.07;;;6.70;99.90;;;;;;5062744;28;20048;-66
2024/03/19 01:39:41;;;;;;;40.92;7.47;;;6.70;99.90;;;;;;5063053;28;20047;-60
2024/03/19 01:42:08;;;;;;;83.35;8.30;;;6.70;99.90;;;;;;5064776;28;20652;-53
2024/03/19 01:44:34;;;;;;;44.40;6.72;;;6.70;99.90;;;;;;5062065;28;20457;-60
2024/03/19 01:46:59;;;;;;;30.95;6.80;;;6.70;99.90;;;;;;5044257;28;20053;-63
2024/03/19 01:49:25;;;;;;;52.13;8.32;;;6.60;99.90;;;;;;5028231;28;20051;-61
2024/03/19 01:51:53;;;;;;;35.70;7.63;;;6.60;99.90;;;;;;5044644;28;20056;-59
2024/03/19 01:54:18;;;;;;;38.60;7.47;;;6.60;99.90;;;;;;5044179;28;20469;-58
2024/03/19 01:56:44;;;;;;;29.45;6.85;;;6.50;99.90;;;;;;5044453;28;20040;-56
2024/03/19 01:59:10;;;;;;;33.15;7.82;;;6.50;99.90;;;;;;5028716;28;20106;-66
2024/03/19 02:01:36;;;;;;;28.40;7.18;;;6.60;99.90;;;;;;5043814;28;20497;-60
2024/03/19 02:04:02;;;;;;;12.48;7.18;;;6.50;99.90;;;;;;5062864;28;20502;-60
2024/03/19 02:06:28;;;;;;;36.22;7.38;;;6.50;99.90;;;;;;5062058;28;20409;-58
2024/03/19 02:09:02;;;;;;;33.83;7.35;;;6.50;99.90;;;;;;5061452;28;20098;-64
2024/03/19 02:11:29;;;;;;;31.60;7.60;;;6.60;99.90;;;;;;5060182;28;20395;-52
2024/03/19 02:13:55;;;;;;;28.52;7.03;;;6.50;99.90;;;;;;5061387;28;20393;-65
2024/03/19 02:16:21;;;;;;;25.38;7.97;;;6.50;99.90;;;;;;5062640;28;20044;-66
2024/03/19 02:18:54;;;;;;;23.80;8.07;;;6.50;99.90;;;;;;5061505;28;20137;-64
2024/03/19 02:21:20;;;;;;;34.58;8.10;;;6.50;99.90;;;;;;5041124;28;20179;-57
2024/03/19 02:23:46;;;;;;;34.05;8.07;;;6.40;99.90;;;;;;5033959;28;20136;-63
2024/03/19 02:26:12;;;;;;;37.15;8.30;;;6.40;99.90;;;;;;5043624;28;20113;-59
2024/03/19 02:28:38;;;;;;;31.38;7.70;;;6.40;99.90;;;;;;5021608;28;20521;-62
2024/03/19 02:31:04;;;;;;;19.05;7.88;;;6.40;99.90;;;;;;5017751;28;20662;-56
2024/03/19 02:33:30;;;;;;;23.95;7.70;;;6.40;99.90;;;;;;5042794;28;20183;-62
2024/03/19 02:35:56;;;;;;;33.45;8.50;;;6.50;99.90;;;;;;5040708;28;20049;-59
2024/03/19 02:38:24;;;;;;;14.70;7.75;;;6.50;99.90;;;;;;5007034;28;20057;-56
2024/03/19 02:40:50;;;;;;;26.50;8.65;;;6.40;99.90;;;;;;5040919;28;20513;-55
2024/03/19 02:43:15;;;;;;;33.95;8.98;;;6.50;99.90;;;;;;5041665;28;20049;-60
2024/03/19 02:45:41;;;;;;;18.25;8.15;;;6.50;99.90;;;;;;5023414;28;20045;-65
2024/03/19 02:48:07;;;;;;;25.10;9.40;;;6.50;99.90;;;;;;5022217;28;20140;-58
2024/03/19 02:50:33;;;;;;;18.23;8.63;;;6.50;99.90;;;;;;5021322;28;20057;-63
2024/03/19 02:52:58;;;;;;;19.67;8.60;;;6.50;99.90;;;;;;5037962;28;20542;-59
2024/03/19 02:55:24;;;;;;;36.92;10.57;;;6.50;99.90;;;;;;5025135;28;20040;-64
2024/03/19 02:57:51;;;;;;;31.08;10.00;;;6.50;99.90;;;;;;5040980;28;20673;-54
2024/03/19 03:00:17;;;;;;;22.00;9.80;;;6.50;99.90;;;;;;5048855;28;20045;-63
2024/03/19 03:02:42;;;;;;;20.08;9.85;;;6.50;99.90;;;;;;5026555;28;20060;-54
2024/03/19 03:05:08;;;;;;;17.17;9.05;;;6.50;99.90;;;;;;5025774;28;20049;-62
2024/03/19 03:07:34;;;;;;;21.63;9.93;;;6.50;99.90;;;;;;5049596;28;20122;-57
2024/03/19 03:09:59;;;;;;;18.55;9.25;;;6.50;99.90;;;;;;5028071;28;20088;-63
2024/03/19 03:12:25;;;;;;;15.95;9.93;;;6.50;99.90;;;;;;5048592;28;20541;-55
2024/03/19 03:14:51;;;;;;;28.30;10.27;;;6.50;99.90;;;;;;5026025;28;20049;-67
2024/03/19 03:17:16;;;;;;;24.95;10.25;;;6.50;99.90;;;;;;5047906;28;20057;-52
2024/03/19 03:19:42;;;;;;;31.67;11.38;;;6.50;99.90;;;;;;5027556;28;20049;-59
2024/03/19 03:22:08;;;;;;;32.70;10.32;;;6.60;99.90;;;;;;5026782;28;20075;-63
2024/03/19 03:24:34;;;;;;;30.63;9.75;;;6.50;99.90;;;;;;5048872;28;20041;-61
2024/03/19 03:27:00;;;;;;;18.73;10.40;;;6.60;99.90;;;;;;5046605;28;20063;-62
2024/03/19 03:29:26;;;;;;;26.58;10.43;;;6.60;99.90;;;;;;5048407;28;20044;-57
2024/03/19 03:31:52;;;;;;;45.50;11.20;;;6.50;99.90;;;;;;5035404;28;20106;-61
2024/03/19 03:34:24;;;;;;;22.10;11.05;;;6.60;99.90;;;;;;5043609;28;20515;-66
2024/03/19 03:36:49;;;;;;;38.22;10.77;;;6.60;99.90;;;;;;5046534;28;20045;-60
2024/03/19 03:39:15;;;;;;;26.88;10.88;;;6.60;99.90;;;;;;5045578;28;20055;-65
2024/03/19 03:41:42;;;;;;;24.73;11.30;;;6.60;99.90;;;;;;5039056;28;20045;-61
2024/03/19 03:44:08;;;;;;;28.63;11.15;;;6.60;99.90;;;;;;5047582;28;20048;-55
2024/03/19 03:46:34;;;;;;;30.80;11.73;;;6.50;99.90;;;;;;5048326;28;20289;-56
2024/03/19 03:49:00;;;;;;;28.52;10.57;;;6.60;99.90;;;;;;5045931;28;20139;-57
2024/03/19 03:51:26;;;;;;;22.20;9.98;;;6.60;99.90;;;;;;5047109;28;20131;-61
2024/03/19 03:53:51;;;;;;;32.33;10.05;;;6.60;99.90;;;;;;5046201;28;20057;-56
2024/03/19 03:56:17;;;;;;;37.10;11.38;;;6.50;99.90;;;;;;5049982;28;20037;-57
2024/03/19 03:58:43;;;;;;;45.25;11.13;;;6.60;99.90;;;;;;5048360;28;20044;-63
2024/03/19 04:01:09;;;;;;;28.77;10.90;;;6.60;99.90;;;;;;5037996;28;20057;-64
2024/03/19 04:03:36;;;;;;;44.50;11.35;;;6.60;99.90;;;;;;5046480;28;20048;-56
2024/03/19 04:06:02;;;;;;;34.38;11.27;;;6.60;99.90;;;;;;5048129;28;20407;-53
2024/03/19 04:08:27;;;;;;;43.83;10.45;;;6.70;99.90;;;;;;5046489;28;20114;-62
2024/03/19 04:10:53;;;;;;;29.08;11.57;;;6.70;99.90;;;;;;5043048;28;20075;-66
2024/03/19 04:13:19;;;;;;;30.50;11.88;;;6.70;99.90;;;;;;5044587;28;20040;-62
2024/03/19 04:15:44;;;;;;;30.45;10.88;;;6.70;99.90;;;;;;5042257;28;20049;-51
2024/03/19 04:18:11;;;;;;;33.22;11.55;;;6.70;99.90;;;;;;5042486;28;20041;-53
2024/03/19 04:20:37;;;;;;;22.60;10.43;;;6.80;99.90;;;;;;5041493;28;20060;-63
2024/03/19 04:23:03;;;;;;;33.35;11.00;;;6.80;99.90;;;;;;5056963;28;20049;-59
2024/03/19 04:25:29;;;;;;;31.42;10.75;;;6.80;99.90;;;;;;5064723;28;20382;-50
2024/03/19 04:27:54;;;;;;;38.72;11.75;;;6.90;99.90;;;;;;5064485;28;20048;-57
2024/03/19 04:30:20;;;;;;;22.67;12.02;;;6.90;99.90;;;;;;5027617;28;20644;-52
2024/03/19 04:32:46;;;;;;;26.85;11.52;;;7.00;99.90;;;;;;5062600;28;20063;-57
2024/03/19 04:35:11;;;;;;;25.73;10.50;;;7.00;99.90;;;;;;5060939;28;20044;-56
2024/03/19 04:37:37;;;;;;;32.75;11.25;;;7.00;99.90;;;;;;5062495;28;20040;-59
2024/03/19 04:40:04;;;;;;;33.13;11.10;;;7.00;99.90;;;;;;5045873;28;20058;-61
2024/03/19 04:42:30;;;;;;;30.58;11.10;;;6.90;99.90;;;;;;5046649;28;20048;-61
2024/03/19 04:44:56;;;;;;;32.03;11.27;;;7.00;99.90;;;;;;5057236;28;20503;-52
2024/03/19 04:47:21;;;;;;;53.55;11.40;;;7.00;99.90;;;;;;5063855;28;20457;-50
2024/03/19 04:49:47;;;;;;;29.83;11.82;;;7.10;99.90;;;;;;5063334;28;20593;-61
2024/03/19 04:52:13;;;;;;;20.10;10.63;;;7.00;99.90;;;;;;5065083;28;20118;-59
2024/03/19 04:54:38;;;;;;;26.38;11.63;;;7.00;99.90;;;;;;5058881;28;20048;-61
2024/03/19 04:57:05;;;;;;;34.38;11.27;;;7.00;99.90;;;;;;5064298;28;20048;-64
2024/03/19 04:59:31;;;;;;;27.58;11.32;;;7.00;99.90;;;;;;5063079;28;20059;-56
2024/03/19 05:01:57;;;;;;;31.63;11.73;;;7.00;99.90;;;;;;5063987;28;20032;-56
2024/03/19 05:04:22;;;;;;;34.33;12.27;;;7.00;99.90;;;;;;5044899;28;20055;-59
2024/03/19 05:06:48;;;;;;;34.08;11.35;;;7.10;99.90;;;;;;5069983;28;20463;-58
2024/03/19 05:09:18;;;;;;;43.35;11.35;;;7.10;99.90;;;;;;5061333;28;20550;-64
2024/03/19 05:11:44;;;;;;;;;;;7.10;99.90;;;;;;5058303;28;20394;-59
2024/03/19 05:14:10;;;;;;;27.27;11.65;;;7.10;99.90;;;;;;5059972;28;20410;-53
2024/03/19 05:16:35;;;;;;;31.30;10.88;;;7.10;99.90;;;;;;5062935;28;20587;-57
2024/03/19 05:19:01;;;;;;;37.65;11.77;;;7.10;99.90;;;;;;5027903;28;20044;-57
2024/03/19 05:21:27;;;;;;;33.45;11.57;;;7.10;99.90;;;;;;5045340;28;20048;-52
2024/03/19 05:23:53;;;;;;;29.05;11.80;;;7.10;99.90;;;;;;5024513;28;20616;-61
2024/03/19 05:26:18;;;;;;;28.40;10.85;;;7.20;99.90;;;;;;5043947;28;20055;-52
2024/03/19 05:28:44;;;;;;;20.75;11.60;;;7.10;99.90;;;;;;5043593;28;20098;-58
2024/03/19 05:31:24;;;;;;;36.13;11.90;;;7.20;99.90;;;;;;5043892;28;20534;-54
2024/03/19 05:33:54;;;;;;;;;;;7.20;99.90;;;;;;5041410;28;20341;-59
2024/03/19 05:36:21;;;;;;;29.30;10.48;;;7.20;99.90;;;;;;5024933;28;19943;-49
2024/03/19 05:38:47;;;;;;;41.38;11.18;;;7.20;99.90;;;;;;5042644;28;20047;-57
2024/03/19 05:41:14;;;;;;;36.45;10.18;;;7.10;99.90;;;;;;5042264;28;20041;-59
2024/03/19 05:43:42;;;;;;;51.15;11.23;;;7.20;99.90;;;;;;5043615;28;20058;-53
2024/03/19 05:46:07;;;;;;;39.65;10.90;;;7.20;99.90;;;;;;5041167;28;20052;-54
2024/03/19 05:48:34;;;;;;;42.17;11.68;;;7.20;99.90;;;;;;5042003;28;20464;-55
2024/03/19 05:51:01;;;;;;;24.27;10.88;;;7.20;99.90;;;;;;5024339;28;20427;-56
2024/03/19 05:53:27;;;;;;;22.13;10.30;;;7.30;99.90;;;;;;5025347;28;20049;-49
2024/03/19 05:55:52;;;;;;;46.60;11.10;;;7.20;99.90;;;;;;5041067;28;20055;-57
2024/03/19 05:58:18;;;;;;;36.67;11.15;;;7.20;99.90;;;;;;5041716;28;20044;-56
2024/03/19 06:00:43;;;;;;;25.27;11.35;;;7.30;99.90;;;;;;5042135;28;20075;-55
2024/03/19 06:03:10;;;;;;;37.22;13.25;;;7.30;99.90;;;;;;5036858;28;20051;-60
2024/03/19 06:05:36;;;;;;;30.50;11.48;;;7.30;99.90;;;;;;5040150;28;20071;-52
2024/03/19 06:08:02;;;;;;;24.65;11.38;;;7.30;99.90;;;;;;5034395;28;20490;-62
2024/03/19 06:10:28;;;;;;;32.22;11.20;;;7.40;99.90;;;;;;5043200;28;20438;-57
2024/03/19 06:12:53;;;;;;;44.22;11.25;;;7.40;99.90;;;;;;5043295;28;20052;-55
2024/03/19 06:15:19;;;;;;;41.85;11.90;;;7.30;99.90;;;;;;5041129;28;20081;-61
2024/03/19 06:17:45;;;;;;;32.20;11.57;;;7.30;99.90;;;;;;5024398;28;20076;-59
2024/03/19 06:20:17;;;;;;;23.90;12.40;;;7.40;99.90;;;;;;5024427;28;20092;-52
2024/03/19 06:22:44;;;;;;;36.67;11.75;;;7.30;99.90;;;;;;5047566;28;20414;-56
2024/03/19 06:25:10;;;;;;;26.67;12.35;;;7.30;99.90;;;;;;5041453;28;20116;-60
2024/03/19 06:27:36;;;;;;;31.20;11.93;;;7.40;99.90;;;;;;5043428;28;20151;-49
2024/03/19 06:30:03;;;;;;;26.40;11.30;;;7.30;99.90;;;;;;5038497;28;20056;-57
2024/03/19 06:32:29;;;;;;;45.58;12.63;;;7.50;99.90;;;;;;5041994;28;20052;-55
2024/03/19 06:34:54;;;;;;;27.00;11.70;;;7.40;99.90;;;;;;5040834;28;20195;-58
2024/03/19 06:37:20;;;;;;;30.45;11.40;;;7.40;99.90;;;;;;5040181;28;20380;-61
2024/03/19 06:39:46;;;;;;;44.05;12.10;;;7.40;99.90;;;;;;5024282;28;20048;-52
2024/03/19 06:42:11;;;;;;;29.05;11.57;;;7.50;99.90;;;;;;5020448;28;20352;-56
2024/03/19 06:44:37;;;;;;;28.27;11.82;;;7.50;99.90;;;;;;5036566;28;20228;-58
2024/03/19 06:47:03;;;;;;;30.20;11.32;;;7.50;99.90;;;;;;5041033;28;20041;-53
2024/03/19 06:49:29;;;;;;;31.92;11.55;;;7.60;99.90;;;;;;5022062;28;20075;-61
2024/03/19 06:51:55;;;;;;;25.33;11.70;;;7.50;99.90;;;;;;5042459;28;20492;-51
2024/03/19 06:54:20;;;;;;;42.15;11.57;;;7.60;99.90;;;;;;5039263;28;20394;-59
2024/03/19 06:56:47;;;;;;;42.03;12.23;;;7.70;99.90;;;;;;5042933;28;20049;-58
2024/03/19 06:59:15;;;;;;;32.13;12.50;;;7.60;99.90;;;;;;5038996;28;20576;-63
2024/03/19 07:01:41;;;;;;;25.25;12.93;;;7.70;99.90;;;;;;5036582;28;20126;-63
2024/03/19 07:04:06;;;;;;;27.17;12.98;;;7.70;99.90;;;;;;5041242;28;20491;-64
2024/03/19 07:06:32;;;;;;;41.10;12.57;;;7.70;99.90;;;;;;5024346;28;20164;-59
2024/03/19 07:08:58;;;;;;;22.33;10.98;;;7.90;99.90;;;;;;5044687;28;20470;-58
2024/03/19 07:11:24;;;;;;;31.20;11.98;;;7.80;99.90;;;;;;5035343;28;20060;-60
2024/03/19 07:13:49;;;;;;;31.75;12.10;;;7.90;99.90;;;;;;5025398;28;20057;-60
2024/03/19 07:16:15;;;;;;;34.13;12.77;;;7.90;99.90;;;;;;5032135;28;20102;-66
2024/03/19 07:18:41;;;;;;;22.98;10.75;;;7.90;99.90;;;;;;5041101;28;20372;-57
2024/03/19 07:21:07;;;;;;;27.27;12.35;;;8.00;99.90;;;;;;5040763;28;20037;-54
2024/03/19 07:23:33;;;;;;;22.05;12.20;;;8.00;99.90;;;;;;5042607;28;20442;-56
2024/03/19 07:25:59;;;;;;;31.38;12.32;;;8.10;99.90;;;;;;5041697;28;20045;-59
2024/03/19 07:28:25;;;;;;;30.08;11.63;;;8.10;99.90;;;;;;5042345;28;20111;-62
2024/03/19 07:30:51;;;;;;;34.40;12.30;;;8.20;99.90;;;;;;5042224;28;20578;-62
2024/03/19 07:33:17;;;;;;;21.25;11.25;;;8.30;99.90;;;;;;5041837;28;20403;-64
2024/03/19 07:35:43;;;;;;;33.78;12.15;;;8.40;99.90;;;;;;5022722;28;20049;-54
2024/03/19 07:38:09;;;;;;;38.28;10.93;;;8.50;99.90;;;;;;5040978;28;20509;-60
2024/03/19 07:40:35;;;;;;;28.30;12.00;;;8.60;99.90;;;;;;5042167;28;20045;-57
2024/03/19 07:43:03;;;;;;;27.88;10.70;;;8.70;99.90;;;;;;5039680;28;20080;-59
2024/03/19 07:45:28;;;;;;;26.60;10.95;;;8.70;99.90;;;;;;5042168;28;20492;-59
2024/03/19 07:47:55;;;;;;;24.17;11.20;;;8.80;99.90;;;;;;5045174;28;20063;-48
2024/03/19 07:50:28;;;;;;;27.77;11.50;;;8.90;99.90;;;;;;5045663;28;20048;-62
2024/03/19 07:52:54;;;;;;;25.17;11.50;;;9.00;99.90;;;;;;5045114;28;20045;-59
2024/03/19 07:55:20;;;;;;;46.10;12.35;;;9.10;99.90;;;;;;5045799;28;20045;-56
2024/03/19 07:57:46;;;;;;;40.17;12.40;;;9.30;99.90;;;;;;5045547;28;20048;-51
2024/03/19 08:00:14;;;;;;;33.63;11.23;;;9.40;99.90;;;;;;5025579;28;20049;-60
2024/03/19 08:02:40;;;;;;;38.40;11.60;;;9.50;99.90;;;;;;5046261;28;20048;-55
2024/03/19 08:05:12;;;;;;;29.75;12.05;;;9.60;99.90;;;;;;5047149;28;20053;-58
2024/03/19 08:07:43;;;;;;;36.60;12.60;;;9.60;99.90;;;;;;5045543;28;20483;-59
2024/03/19 08:10:09;;;;;;;36.53;10.80;;;9.80;99.90;;;;;;5045402;28;20384;-63
2024/03/19 08:12:35;;;;;;;35.65;11.60;;;9.70;99.90;;;;;;5045644;28;20572;-56
2024/03/19 08:15:03;;;;;;;33.95;11.27;;;9.90;99.90;;;;;;5056997;28;20139;-58
2024/03/19 08:17:30;;;;;;;41.97;12.80;;;9.90;99.90;;;;;;5039554;28;20094;-60
2024/03/19 08:20:00;;;;;;;39.67;11.93;;;9.90;99.90;;;;;;5057895;28;20048;-50
2024/03/19 08:22:26;;;;;;;23.92;10.02;;;9.90;99.90;;;;;;5042040;28;20526;-52
2024/03/19 08:24:53;;;;;;;31.05;11.85;;;9.90;99.90;;;;;;5033924;28;20092;-58
2024/03/19 08:27:19;;;;;;;37.17;12.38;;;9.90;99.90;;;;;;5040507;28;20084;-60
2024/03/19 08:29:45;;;;;;;36.20;13.10;;;9.90;99.90;;;;;;5029843;28;20555;-48
2024/03/19 08:32:11;;;;;;;49.00;13.40;;;9.90;99.90;;;;;;5042936;28;20127;-57
2024/03/19 08:34:37;;;;;;;36.92;11.82;;;10.00;99.90;;;;;;5051439;28;20110;-49
2024/03/19 08:37:05;;;;;;;38.05;12.50;;;10.00;99.90;;;;;;5046892;28;20041;-52
2024/03/19 08:39:34;;;;;;;35.28;12.68;;;10.10;99.90;;;;;;5045504;28;20053;-58
2024/03/19 08:42:00;;;;;;;38.00;12.05;;;10.20;99.90;;;;;;5036662;28;20049;-56
2024/03/19 08:44:26;;;;;;;44.17;12.75;;;10.30;99.90;;;;;;5056507;28;20058;-51
2024/03/19 08:46:51;;;;;;;34.13;12.20;;;10.30;99.90;;;;;;5057141;28;20079;-60
2024/03/19 08:49:18;;;;;;;39.65;12.57;;;10.40;99.90;;;;;;5046290;28;20079;-53
2024/03/19 08:51:44;;;;;;;41.15;12.32;;;10.50;99.90;;;;;;5056106;28;20053;-56
2024/03/19 08:54:09;;;;;;;37.47;11.77;;;10.60;99.90;;;;;;5052241;28;20048;-60
2024/03/19 08:56:36;;;;;;;25.88;10.18;;;10.60;99.90;;;;;;5022119;28;20046;-60
2024/03/19 08:59:03;;;;;;;41.35;12.55;;;10.50;99.90;;;;;;5042448;28;20052;-58
2024/03/19 09:01:29;;;;;;;36.88;12.18;;;10.60;99.90;;;;;;5049208;28;20122;-51
2024/03/19 09:03:55;;;;;;;42.00;13.45;;;10.50;99.90;;;;;;5031725;28;20490;-52
2024/03/19 09:06:20;;;;;;;30.60;9.32;;;10.60;99.90;;;;;;5056658;28;20050;-63
2024/03/19 09:08:46;;;;;;;44.40;12.30;;;10.60;99.90;;;;;;5039488;28;20036;-51
2024/03/19 09:11:12;;;;;;;31.42;11.05;;;10.70;99.90;;;;;;5046202;28;20470;-54
2024/03/19 09:13:38;;;;;;;28.38;10.25;;;10.70;99.90;;;;;;5043063;28;20502;-62
2024/03/19 09:16:04;;;;;;;45.42;12.68;;;10.70;99.90;;;;;;5051535;28;20044;-50
2024/03/19 09:18:30;;;;;;;33.35;12.13;;;10.70;99.90;;;;;;5027668;28;20102;-58
2024/03/19 09:20:56;;;;;;;35.70;11.48;;;10.80;99.90;;;;;;5048632;28;20048;-54
2024/03/19 09:23:23;;;;;;;37.88;11.68;;;10.90;99.90;;;;;;5051749;28;20292;-60
2024/03/19 09:25:49;;;;;;;36.85;11.95;;;10.80;99.90;;;;;;5044510;28;20053;-58
2024/03/19 09:28:15;;;;;;;30.02;10.82;;;10.90;99.90;;;;;;5043801;28;20176;-60
2024/03/19 09:30:41;;;;;;;39.65;12.55;;;10.90;99.90;;;;;;5034177;28;20040;-55
2024/03/19 09:33:09;;;;;;;37.42;12.55;;;11.00;99.90;;;;;;5022341;28;20041;-60
2024/03/19 09:35:35;;;;;;;35.58;12.10;;;11.10;99.90;;;;;;5034845;28;20049;-56
2024/03/19 09:38:01;;;;;;;32.13;10.05;;;11.10;99.90;;;;;;5024223;28;20115;-63
2024/03/19 09:40:27;;;;;;;37.80;11.57;;;11.10;99.90;;;;;;5042560;28;20056;-52
2024/03/19 09:42:54;;;;;;;22.80;8.65;;;11.10;99.90;;;;;;5039229;28;20178;-63
2024/03/19 09:45:28;;;;;;;34.15;10.77;;;11.20;99.90;;;;;;5041918;28;20041;-59
2024/03/19 09:47:57;;;;;;;29.17;10.43;;;11.20;99.90;;;;;;5039708;28;20049;-60
2024/03/19 09:50:28;;;;;;;38.23;10.57;;;11.30;99.90;;;;;;5021735;28;20454;-60
2024/03/19 09:52:57;;;;;;;39.67;12.70;;;11.40;99.90;;;;;;5043510;28;20472;-59
2024/03/19 09:55:25;;;;;;;36.80;11.70;;;11.60;99.90;;;;;;5041117;28;20227;-58
2024/03/19 09:57:54;;;;;;;34.50;11.73;;;11.70;99.90;;;;;;5042085;28;20057;-59
2024/03/19 10:00:26;;;;;;;29.30;10.90;;;11.90;99.90;;;;;;5039706;28;20504;-53
2024/03/19 10:02:53;;;;;;;30.90;11.00;;;11.90;99.90;;;;;;5021249;28;20068;-57
2024/03/19 10:05:20;;;;;;;34.22;10.30;;;12.00;99.90;;;;;;5048830;28;20063;-63
2024/03/19 10:07:51;;;;;;;29.55;9.60;;;12.10;99.90;;;;;;5046246;28;20430;-57
2024/03/19 10:10:17;;;;;;;31.38;10.13;;;12.20;99.90;;;;;;5041594;28;20459;-55
2024/03/19 10:12:43;;;;;;;18.20;7.85;;;12.30;99.90;;;;;;5043278;28;20611;-57
2024/03/19 10:15:20;;;;;;;22.48;8.95;;;12.40;99.90;;;;;;5045799;28;20055;-59
2024/03/19 10:17:47;;;;;;;21.15;8.38;;;12.60;99.90;;;;;;5040230;28;20080;-61
2024/03/19 10:20:15;;;;;;;18.75;7.10;;;12.60;99.90;;;;;;5023929;28;20053;-57
2024/03/19 10:22:46;;;;;;;20.30;8.35;;;12.70;99.90;;;;;;5050835;28;20675;-63
2024/03/19 10:25:14;;;;;;;15.73;6.68;;;12.80;99.90;;;;;;5062918;28;20135;-59
2024/03/19 10:27:44;;;;;;;21.00;7.75;;;13.00;99.90;;;;;;5063256;28;20056;-55
2024/03/19 10:30:14;;;;;;;19.42;7.60;;;13.10;99.90;;;;;;5063288;28;20378;-56
2024/03/19 10:32:46;;;;;;;22.05;6.72;;;13.10;99.90;;;;;;5059928;28;20258;-61
2024/03/19 10:35:20;;;;;;;14.32;6.40;;;13.20;99.90;;;;;;5028278;28;20052;-58
2024/03/19 10:37:52;;;;;;;14.52;6.40;;;13.20;99.90;;;;;;5059211;28;20090;-62
2024/03/19 10:40:20;;;;;;;15.65;6.93;;;13.20;99.90;;;;;;5060206;28;20040;-56
2024/03/19 10:42:51;;;;;;;20.00;6.65;;;13.20;99.90;;;;;;5055167;28;20112;-59
2024/03/19 10:45:19;;;;;;;14.27;6.80;;;13.40;99.90;;;;;;5065376;28;20453;-60
2024/03/19 10:47:47;;;;;;;10.95;5.70;;;13.50;99.90;;;;;;5059134;28;20072;-59
2024/03/19 10:50:17;;;;;;;14.20;5.47;;;13.60;99.90;;;;;;5068888;28;20097;-57
2024/03/19 10:52:53;;;;;;;14.50;6.32;;;13.60;99.90;;;;;;5061393;28;20123;-59
2024/03/19 10:55:20;;;;;;;11.93;5.82;;;13.60;99.90;;;;;;5067745;28;20058;-61
2024/03/19 10:57:47;;;;;;;12.23;5.18;;;13.60;99.90;;;;;;5061004;28;20044;-60
2024/03/19 11:00:27;;;;;;;10.60;4.97;;;13.50;99.90;;;;;;5067322;28;20082;-56
2024/03/19 11:02:58;;;;;;;10.88;4.75;;;13.50;99.90;;;;;;5024585;28;20056;-59
2024/03/19 11:05:26;;;;;;;8.23;4.97;;;13.40;99.90;;;;;;5060616;28;20405;-59
2024/03/19 11:07:55;;;;;;;8.75;3.95;;;13.50;99.90;;;;;;5040464;28;20049;-64
2024/03/19 11:10:35;;;;;;;8.25;4.97;;;13.50;99.90;;;;;;5064573;28;20080;-59
2024/03/19 11:13:25;;;;;;;6.93;4.50;;;13.50;99.90;;;;;;5060346;28;20444;-56
2024/03/19 11:15:51;;;;;;;5.90;4.53;;;13.60;99.90;;;;;;5056275;28;20059;-58
2024/03/19 11:18:16;;;;;;;12.05;5.30;;;13.60;99.90;;;;;;5060391;28;20048;-63
2024/03/19 11:20:47;;;;;;;9.40;4.70;;;13.60;99.90;;;;;;5063571;28;20120;-60
2024/03/19 11:23:20;;;;;;;6.68;4.18;;;13.60;99.90;;;;;;5064268;28;20049;-64
2024/03/19 11:25:49;;;;;;;8.35;4.57;;;13.60;99.90;;;;;;5064633;28;20052;-52
2024/03/19 11:28:20;;;;;;;7.47;3.88;;;13.50;99.90;;;;;;5064808;28;20045;-61
2024/03/19 11:30:56;;;;;;;6.55;3.72;;;13.50;99.90;;;;;;5064499;28;20080;-56
2024/03/19 11:33:23;;;;;;;10.18;4.22;;;13.50;99.90;;;;;;5064927;28;20536;-59
2024/03/19 11:35:51;;;;;;;7.97;3.80;;;13.60;99.90;;;;;;5063194;28;20090;-61
2024/03/19 11:38:18;;;;;;;8.65;3.67;;;13.60;99.90;;;;;;5062395;28;20707;-59
2024/03/19 11:40:45;;;;;;;8.88;3.65;;;13.60;99.90;;;;;;5065761;28;20119;-59
2024/03/19 11:43:18;;;;;;;4.25;3.72;;;13.60;99.90;;;;;;5064357;28;20510;-59
2024/03/19 11:45:45;;;;;;;5.22;3.45;;;13.50;99.90;;;;;;5054233;28;20044;-65
2024/03/19 11:48:15;;;;;;;5.90;3.42;;;13.40;99.90;;;;;;5060850;28;20052;-54
2024/03/19 11:50:56;;;;;;;5.03;3.35;;;13.40;99.90;;;;;;5059488;28;20137;-64
2024/03/19 11:53:23;;;;;;;4.00;3.10;;;13.40;99.90;;;;;;5061623;28;20059;-55
2024/03/19 11:55:50;;;;;;;6.40;3.38;;;13.40;99.90;;;;;;5063508;28;20117;-61
2024/03/19 11:58:16;;;;;;;10.63;3.70;;;13.40;99.90;;;;;;5061408;28;20060;-62
2024/03/19 12:00:42;;;;;;;6.30;3.33;;;13.60;99.90;;;;;;5062136;28;20049;-65
2024/03/19 12:03:09;;;;;;;5.53;3.40;;;13.70;99.90;;;;;;5061561;28;20055;-63
2024/03/19 12:05:35;;;;;;;4.15;2.97;;;13.80;91.10;;;;;;5061699;28;20044;-64
2024/03/19 12:08:01;;;;;;;4.82;2.92;;;13.90;65.70;;;;;;5061490;28;20052;-64
2024/03/19 12:10:28;;;;;;;4.93;3.00;;;14.10;6.30;;;;;;5062246;28;20052;-53
2024/03/19 12:12:55;;;;;;;7.15;2.80;;;14.10;1.00;;;;;;5063363;28;20055;-59
2024/03/19 12:15:22;;;;;;;2.65;2.25;;;14.20;1.00;;;;;;5063786;28;20046;-63
2024/03/19 12:17:49;;;;;;;6.28;2.83;;;14.30;1.00;;;;;;5045778;28;20045;-62
2024/03/19 12:20:16;;;;;;;4.82;2.78;;;14.30;1.00;;;;;;5064077;28;20095;-58
2024/03/19 12:22:47;;;;;;;5.72;2.90;;;14.30;1.00;;;;;;5063690;28;20056;-50
2024/03/19 12:25:12;;;;;;;4.18;2.42;;;14.40;1.00;;;;;;5064185;28;20270;-58
2024/03/19 12:27:39;;;;;;;3.80;2.42;;;14.50;1.00;;;;;;5063366;28;20029;-62
2024/03/19 12:30:15;;;;;;;5.28;2.92;;;14.60;1.00;;;;;;5063121;28;20040;-59
2024/03/19 12:32:47;;;;;;;4.65;2.45;;;14.70;1.00;;;;;;5062142;28;20090;-58
2024/03/19 12:35:16;;;;;;;3.25;2.90;;;14.70;99.90;;;;;;5062966;28;21167;-56
2024/03/19 12:37:43;;;;;;;3.60;2.30;;;14.70;1.00;;;;;;5063810;28;20045;-61
2024/03/19 12:40:12;;;;;;;3.28;2.75;;;14.70;99.90;;;;;;5061804;28;20051;-61